Time;durP1;ratioP1;P1;durP2;ratioP2;P2;SDS_P1;SDS_P2;PMS_P1;PMS_P2;Temp;Humidity;BMP_temperature;BMP_pressure;BME280_temperature;BME280_humidity;BME280_pressure;Samples;Min_cycle;Max_cycle;Signal;HPM_P1;HPM_P2
2023/03/30 00:01:37;;;;;;;16.42;11.43;;;;;;;;;;10541949;28;20960;-83
2023/03/30 00:06:41;;;;;;;17.30;11.77;;;;;;;;;;10555686;28;20399;-83
2023/03/30 00:11:44;;;;;;;19.53;12.17;;;;;;;;;;10536112;28;20416;-83
2023/03/30 00:16:46;;;;;;;18.63;13.00;;;;;;;;;;10543029;28;20392;-83
2023/03/30 00:21:49;;;;;;;21.15;13.68;;;;;;;;;;10556932;28;20464;-83
2023/03/30 00:26:51;;;;;;;20.75;14.10;;;;;;;;;;10591346;22;20409;-83
2023/03/30 00:31:53;;;;;;;19.80;13.75;;;;;;;;;;10588274;27;20731;-84
2023/03/30 00:36:57;;;;;;;23.70;13.75;;;;;;;;;;10596539;27;20434;-83
2023/03/30 00:41:59;;;;;;;21.00;13.80;;;;;;;;;;10577112;28;20414;-83
2023/03/30 00:47:01;;;;;;;22.15;14.60;;;;;;;;;;10589227;27;20420;-83
2023/03/30 00:52:04;;;;;;;23.20;14.90;;;;;;;;;;10594845;27;20478;-83
2023/03/30 00:57:07;;;;;;;22.02;15.45;;;;;;;;;;10606945;27;20398;-83
2023/03/30 01:02:09;;;;;;;21.75;14.80;;;;;;;;;;10585131;27;20434;-83
2023/03/30 01:07:13;;;;;;;22.17;15.10;;;;;;;;;;10597311;27;20405;-83
2023/03/30 01:12:15;;;;;;;22.08;15.38;;;;;;;;;;10611497;27;20425;-83
2023/03/30 01:17:25;;;;;;;24.63;15.45;;;;;;;;;;10586669;27;20406;-82
2023/03/30 01:22:57;;;;;;;26.43;16.20;;;;;;;;;;10596706;27;20508;-82
2023/03/30 01:28:20;;;;;;;24.38;15.50;;;;;;;;;;10601688;27;20443;-82
2023/03/30 01:33:41;;;;;;;23.45;15.68;;;;;;;;;;10604330;27;20766;-83
2023/03/30 01:39:14;;;;;;;23.07;15.43;;;;;;;;;;10574597;28;20422;-83
2023/03/30 01:44:22;;;;;;;25.23;15.30;;;;;;;;;;10578633;27;20415;-83
2023/03/30 01:49:29;;;;;;;24.53;14.93;;;;;;;;;;10603879;27;20464;-83
2023/03/30 01:54:36;;;;;;;23.00;14.80;;;;;;;;;;10585824;27;20403;-83
2023/03/30 01:59:44;;;;;;;24.50;15.37;;;;;;;;;;10577274;27;20422;-82
2023/03/30 02:04:48;;;;;;;21.65;14.93;;;;;;;;;;10591198;27;20765;-83
2023/03/30 02:09:55;;;;;;;24.35;14.23;;;;;;;;;;10586399;27;20403;-83
2023/03/30 02:15:00;;;;;;;18.77;13.80;;;;;;;;;;10579280;27;20750;-83
2023/03/30 02:20:03;;;;;;;20.00;14.40;;;;;;;;;;10591128;27;20425;-83
2023/03/30 02:25:07;;;;;;;21.00;14.47;;;;;;;;;;10606103;27;20389;-83
2023/03/30 02:30:10;;;;;;;22.85;14.63;;;;;;;;;;10584367;27;20488;-83
2023/03/30 02:35:23;;;;;;;22.20;14.02;;;;;;;;;;10594176;27;20397;-83
2023/03/30 02:40:36;;;;;;;23.37;14.90;;;;;;;;;;10573157;28;20868;-83
2023/03/30 02:45:50;;;;;;;21.67;14.73;;;;;;;;;;10581667;28;20492;-83
2023/03/30 02:51:00;;;;;;;23.27;15.13;;;;;;;;;;10594678;28;20400;-84
2023/03/30 02:56:10;;;;;;;24.50;15.90;;;;;;;;;;10578702;28;20753;-83
2023/03/30 03:01:16;;;;;;;24.07;15.33;;;;;;;;;;10583548;28;20453;-83
2023/03/30 03:06:19;;;;;;;22.10;14.57;;;;;;;;;;10593299;28;20497;-83
2023/03/30 03:11:22;;;;;;;23.95;15.13;;;;;;;;;;10597922;28;20486;-83
2023/03/30 03:16:24;;;;;;;25.00;15.45;;;;;;;;;;10584817;27;20460;-83
2023/03/30 03:21:26;;;;;;;23.98;15.15;;;;;;;;;;10606737;27;20426;-83
2023/03/30 03:26:29;;;;;;;24.77;15.63;;;;;;;;;;10605850;27;20412;-83
2023/03/30 03:31:31;;;;;;;25.50;15.25;;;;;;;;;;10593328;27;20760;-83
2023/03/30 03:36:33;;;;;;;26.73;15.63;;;;;;;;;;10607614;27;20440;-82
2023/03/30 03:41:36;;;;;;;24.13;14.87;;;;;;;;;;10583084;27;20785;-82
2023/03/30 03:46:38;;;;;;;25.07;15.47;;;;;;;;;;10592993;27;20902;-83
2023/03/30 03:51:40;;;;;;;26.15;16.50;;;;;;;;;;10607712;27;20400;-82
2023/03/30 03:56:43;;;;;;;26.30;15.10;;;;;;;;;;10601436;27;20398;-83
2023/03/30 04:01:45;;;;;;;22.85;15.57;;;;;;;;;;10594046;27;20415;-83
2023/03/30 04:06:47;;;;;;;27.02;15.95;;;;;;;;;;10608006;27;20397;-83
2023/03/30 04:11:50;;;;;;;24.63;15.05;;;;;;;;;;10600414;27;20490;-82
2023/03/30 04:16:52;;;;;;;23.67;15.27;;;;;;;;;;10594327;27;20409;-82
2023/03/30 04:21:54;;;;;;;27.90;15.77;;;;;;;;;;10608644;27;20964;-82
2023/03/30 04:26:57;;;;;;;26.33;15.60;;;;;;;;;;10602279;27;20401;-83
2023/03/30 04:32:01;;;;;;;23.98;15.40;;;;;;;;;;10597175;27;20872;-82
2023/03/30 04:37:03;;;;;;;25.57;15.20;;;;;;;;;;10606768;27;20433;-83
2023/03/30 04:42:06;;;;;;;22.83;14.45;;;;;;;;;;10595356;27;20422;-83
2023/03/30 04:47:08;;;;;;;26.27;15.55;;;;;;;;;;10578220;27;20874;-83
2023/03/30 04:52:10;;;;;;;22.63;15.20;;;;;;;;;;10595772;27;20399;-83
2023/03/30 04:57:13;;;;;;;21.20;14.75;;;;;;;;;;10593103;27;20390;-83
2023/03/30 05:02:16;;;;;;;25.33;14.87;;;;;;;;;;10606052;27;20427;-83
2023/03/30 05:07:18;;;;;;;26.08;14.82;;;;;;;;;;10606976;27;20403;-82
2023/03/30 05:12:21;;;;;;;22.35;14.23;;;;;;;;;;10605274;27;20472;-84
2023/03/30 05:17:23;;;;;;;23.15;14.77;;;;;;;;;;10606182;27;20484;-83
2023/03/30 05:22:25;;;;;;;23.43;14.90;;;;;;;;;;10605974;27;20784;-83
2023/03/30 05:27:29;;;;;;;26.35;15.93;;;;;;;;;;10605429;27;20441;-82
2023/03/30 05:32:31;;;;;;;23.27;14.57;;;;;;;;;;10604216;27;20849;-83
2023/03/30 05:37:33;;;;;;;24.42;15.60;;;;;;;;;;10604033;27;20405;-82
2023/03/30 05:42:36;;;;;;;28.67;15.95;;;;;;;;;;10594822;27;20433;-84
2023/03/30 05:47:38;;;;;;;22.95;15.07;;;;;;;;;;10592866;27;20409;-86
2023/03/30 05:52:41;;;;;;;23.23;13.90;;;;;;;;;;10583335;27;20786;-84
2023/03/30 05:57:44;;;;;;;24.80;14.82;;;;;;;;;;10583009;27;20408;-84
2023/03/30 06:02:46;;;;;;;24.20;14.00;;;;;;;;;;10596052;27;20417;-84
2023/03/30 06:07:51;;;;;;;24.13;14.13;;;;;;;;;;10580187;27;20417;-84
2023/03/30 06:12:54;;;;;;;31.35;14.35;;;;;;;;;;10603086;27;20425;-83
2023/03/30 06:17:57;;;;;;;21.27;13.77;;;;;;;;;;10595710;27;20445;-84
2023/03/30 06:23:00;;;;;;;22.77;13.60;;;;;;;;;;10601393;27;20959;-83
2023/03/30 06:28:03;;;;;;;23.05;13.55;;;;;;;;;;10585495;27;20472;-82
2023/03/30 06:33:05;;;;;;;22.77;13.10;;;;;;;;;;10594708;27;20404;-83
2023/03/30 06:38:08;;;;;;;22.33;13.17;;;;;;;;;;10602300;27;20493;-83
2023/03/30 06:43:16;;;;;;;21.25;12.88;;;;;;;;;;10587807;27;20760;-83
2023/03/30 06:48:19;;;;;;;20.48;12.48;;;;;;;;;;10576882;28;20397;-83
2023/03/30 06:53:22;;;;;;;21.67;12.33;;;;;;;;;;10602069;27;20394;-83
2023/03/30 06:58:27;;;;;;;19.80;12.43;;;;;;;;;;10606026;27;20397;-82
2023/03/30 07:03:29;;;;;;;20.93;12.67;;;;;;;;;;10611042;27;20427;-82
2023/03/30 07:08:31;;;;;;;20.17;11.63;;;;;;;;;;10592879;27;20416;-82
2023/03/30 07:13:34;;;;;;;17.35;11.15;;;;;;;;;;10597844;27;20406;-83
2023/03/30 07:18:36;;;;;;;17.80;11.00;;;;;;;;;;10600133;27;20404;-83
2023/03/30 07:23:37;;;;;;;17.88;10.90;;;;;;;;;;10590246;27;20433;-83
2023/03/30 07:28:41;;;;;;;14.25;9.45;;;;;;;;;;10603353;27;20401;-83
2023/03/30 07:33:43;;;;;;;15.47;9.33;;;;;;;;;;10606651;27;20903;-82
2023/03/30 07:38:45;;;;;;;14.83;8.90;;;;;;;;;;10608484;27;20398;-82
2023/03/30 07:43:48;;;;;;;12.43;8.27;;;;;;;;;;10617057;27;20922;-83
2023/03/30 07:48:51;;;;;;;11.90;7.93;;;;;;;;;;10609643;27;20466;-82
2023/03/30 07:53:53;;;;;;;14.30;7.68;;;;;;;;;;10588392;27;20413;-83
2023/03/30 07:58:56;;;;;;;11.00;7.40;;;;;;;;;;10596156;27;21083;-82
2023/03/30 08:03:59;;;;;;;11.45;7.28;;;;;;;;;;10586755;27;20415;-82
2023/03/30 08:09:01;;;;;;;11.97;7.40;;;;;;;;;;10596812;27;20401;-82
2023/03/30 08:14:04;;;;;;;11.10;7.32;;;;;;;;;;10594689;27;20914;-82
2023/03/30 08:19:07;;;;;;;11.20;7.00;;;;;;;;;;10606141;27;20814;-82
2023/03/30 08:24:09;;;;;;;9.45;6.35;;;;;;;;;;10583976;27;20414;-82
2023/03/30 08:29:12;;;;;;;11.70;6.60;;;;;;;;;;10601236;27;20409;-82
2023/03/30 08:34:14;;;;;;;10.73;7.43;;;;;;;;;;10606225;27;20877;-82
2023/03/30 08:39:16;;;;;;;11.32;6.78;;;;;;;;;;10593414;27;20391;-82
2023/03/30 08:44:28;;;;;;;10.10;5.70;;;;;;;;;;10595458;27;20906;-82
2023/03/30 08:49:36;;;;;;;7.95;3.72;;;;;;;;;;10604561;27;20402;-84
2023/03/30 08:54:38;;;;;;;6.93;3.92;;;;;;;;;;10597669;27;20412;-83
2023/03/30 08:59:49;;;;;;;8.97;4.03;;;;;;;;;;10597219;27;20577;-84
2023/03/30 09:04:57;;;;;;;8.70;4.18;;;;;;;;;;10586251;27;20492;-84
2023/03/30 09:10:00;;;;;;;7.82;4.20;;;;;;;;;;10584289;27;20998;-84
2023/03/30 09:15:08;;;;;;;9.90;4.80;;;;;;;;;;10596646;27;20441;-83
2023/03/30 09:20:16;;;;;;;13.57;5.30;;;;;;;;;;10594319;27;20505;-84
2023/03/30 09:25:20;;;;;;;9.82;5.20;;;;;;;;;;10587913;27;20404;-83
2023/03/30 09:30:30;;;;;;;13.10;5.47;;;;;;;;;;10599435;27;20400;-83
2023/03/30 09:35:39;;;;;;;9.23;4.80;;;;;;;;;;10588208;27;20894;-83
2023/03/30 09:41:00;;;;;;;11.10;4.97;;;;;;;;;;10585920;27;20948;-83
2023/03/30 09:46:06;;;;;;;12.05;5.05;;;;;;;;;;10591530;27;20406;-82
2023/03/30 09:51:16;;;;;;;9.45;5.55;;;;;;;;;;10586131;27;20402;-83
2023/03/30 09:56:25;;;;;;;11.32;5.63;;;;;;;;;;10594335;27;20405;-82
2023/03/30 10:01:37;;;;;;;7.68;5.57;;;;;;;;;;10590040;27;20454;-83
2023/03/30 10:06:47;;;;;;;10.05;5.28;;;;;;;;;;10601589;27;20408;-82
2023/03/30 10:11:50;;;;;;;9.07;5.18;;;;;;;;;;10597188;27;20415;-83
2023/03/30 10:16:54;;;;;;;9.90;5.70;;;;;;;;;;10604557;27;20413;-82
2023/03/30 10:21:57;;;;;;;9.13;4.80;;;;;;;;;;10588846;27;20443;-82
2023/03/30 10:27:09;;;;;;;9.33;5.03;;;;;;;;;;10589492;27;22275;-82
2023/03/30 10:32:17;;;;;;;8.45;4.80;;;;;;;;;;10587993;27;20393;-83
2023/03/30 10:37:25;;;;;;;5.50;4.25;;;;;;;;;;10583577;27;20442;-82
2023/03/30 10:42:31;;;;;;;10.85;5.70;;;;;;;;;;10591702;27;20985;-83
2023/03/30 10:47:52;;;;;;;11.88;6.90;;;;;;;;;;10602878;27;20414;-83
2023/03/30 10:53:05;;;;;;;9.93;4.63;;;;;;;;;;10579643;28;20434;-83
2023/03/30 10:58:20;;;;;;;8.73;4.63;;;;;;;;;;10595668;28;20399;-83
2023/03/30 11:03:27;;;;;;;51.95;9.07;;;;;;;;;;10580891;28;21085;-82
2023/03/30 11:08:34;;;;;;;7.28;4.13;;;;;;;;;;10580136;28;20461;-83
2023/03/30 11:13:40;;;;;;;6.90;4.82;;;;;;;;;;10593785;28;20409;-83
2023/03/30 11:18:52;;;;;;;7.73;4.07;;;;;;;;;;10579941;27;20499;-82
2023/03/30 11:23:55;;;;;;;47.67;8.80;;;;;;;;;;10574073;28;20416;-82
2023/03/30 11:29:05;;;;;;;7.70;4.78;;;;;;;;;;10582318;28;20402;-82
2023/03/30 11:34:19;;;;;;;9.23;4.75;;;;;;;;;;10571173;28;20414;-82
2023/03/30 11:39:27;;;;;;;9.25;4.68;;;;;;;;;;10582251;27;20406;-82
2023/03/30 11:44:30;;;;;;;10.70;5.05;;;;;;;;;;10600208;27;20409;-82
2023/03/30 11:49:43;;;;;;;7.68;5.30;;;;;;;;;;10602514;27;20518;-82
2023/03/30 11:55:11;;;;;;;10.30;6.15;;;;;;;;;;10585334;27;20475;-82
2023/03/30 12:00:31;;;;;;;9.25;5.30;;;;;;;;;;10604397;27;20418;-82
2023/03/30 12:05:40;;;;;;;10.43;4.38;;;;;;;;;;10602883;27;20479;-83
2023/03/30 12:10:48;;;;;;;7.15;4.07;;;;;;;;;;10606957;27;20493;-83
2023/03/30 12:15:55;;;;;;;9.63;4.97;;;;;;;;;;10604895;27;20453;-83
2023/03/30 12:21:11;;;;;;;12.13;5.67;;;;;;;;;;10605423;27;20521;-83
2023/03/30 12:26:25;;;;;;;11.25;6.40;;;;;;;;;;10617086;27;20469;-83
2023/03/30 12:32:03;;;;;;;11.60;5.07;;;;;;;;;;10610511;27;20411;-83
2023/03/30 12:37:12;;;;;;;10.98;4.90;;;;;;;;;;10598576;27;20412;-83
2023/03/30 12:42:25;;;;;;;8.80;4.68;;;;;;;;;;10605463;27;20420;-83
2023/03/30 12:47:39;;;;;;;11.97;5.43;;;;;;;;;;10599058;27;20987;-82
2023/03/30 12:52:54;;;;;;;8.27;5.00;;;;;;;;;;10603122;27;20411;-83
2023/03/30 12:58:13;;;;;;;8.50;5.33;;;;;;;;;;10593204;27;20401;-82
2023/03/30 13:03:39;;;;;;;13.07;6.85;;;;;;;;;;10578712;27;20456;-82
2023/03/30 13:08:42;;;;;;;11.10;5.97;;;;;;;;;;10583612;27;20405;-82
2023/03/30 13:13:50;;;;;;;25.35;6.40;;;;;;;;;;10596532;27;20808;-82
2023/03/30 13:18:53;;;;;;;8.35;4.88;;;;;;;;;;10589336;27;20419;-82
2023/03/30 13:24:05;;;;;;;15.35;6.13;;;;;;;;;;10593675;27;20968;-81
2023/03/30 13:29:10;;;;;;;8.70;5.65;;;;;;;;;;10586408;27;20402;-82
2023/03/30 13:34:20;;;;;;;26.52;5.95;;;;;;;;;;10597078;27;21267;-82
2023/03/30 13:39:29;;;;;;;9.98;5.00;;;;;;;;;;10601953;27;20468;-82
2023/03/30 13:44:45;;;;;;;13.13;5.20;;;;;;;;;;10600610;27;20424;-82
2023/03/30 13:49:55;;;;;;;11.50;4.95;;;;;;;;;;10597000;27;20408;-82
2023/03/30 13:55:02;;;;;;;9.10;5.03;;;;;;;;;;10604344;27;20408;-81
2023/03/30 14:00:08;;;;;;;10.25;5.00;;;;;;;;;;10603605;27;20892;-82
2023/03/30 14:05:19;;;;;;;9.30;5.23;;;;;;;;;;10596833;27;20450;-82
2023/03/30 14:10:23;;;;;;;10.32;4.90;;;;;;;;;;10609468;27;20393;-81
2023/03/30 14:15:32;;;;;;;9.83;5.13;;;;;;;;;;10599189;27;20401;-82
2023/03/30 14:20:46;;;;;;;10.68;4.90;;;;;;;;;;10600476;27;21015;-82
2023/03/30 14:25:54;;;;;;;11.60;5.40;;;;;;;;;;10604166;27;20417;-81
2023/03/30 14:30:57;;;;;;;12.30;5.70;;;;;;;;;;10594374;27;20896;-81
2023/03/30 14:36:01;;;;;;;9.05;6.00;;;;;;;;;;10589057;27;21022;-83
2023/03/30 14:41:07;;;;;;;11.57;5.63;;;;;;;;;;10594707;27;20462;-82
2023/03/30 14:46:11;;;;;;;15.77;5.85;;;;;;;;;;10596202;27;20885;-82
2023/03/30 14:51:25;;;;;;;11.15;6.15;;;;;;;;;;10595616;27;20437;-83
2023/03/30 14:56:28;;;;;;;13.27;6.60;;;;;;;;;;10599623;28;21166;-82
2023/03/30 15:01:31;;;;;;;10.73;6.30;;;;;;;;;;10596201;28;20418;-82
2023/03/30 15:06:33;;;;;;;13.60;5.82;;;;;;;;;;10592368;28;20494;-82
2023/03/30 15:11:38;;;;;;;11.13;5.35;;;;;;;;;;10592463;28;20942;-82
2023/03/30 15:16:41;;;;;;;11.00;5.50;;;;;;;;;;10601776;27;20416;-83
2023/03/30 15:21:43;;;;;;;11.82;5.72;;;;;;;;;;10597724;27;20424;-82
2023/03/30 15:26:49;;;;;;;11.40;6.32;;;;;;;;;;10596836;27;20417;-81
2023/03/30 15:31:59;;;;;;;10.30;5.82;;;;;;;;;;10584518;27;20412;-81
2023/03/30 15:37:01;;;;;;;11.48;6.70;;;;;;;;;;10593937;27;20780;-82
2023/03/30 15:42:05;;;;;;;10.07;5.55;;;;;;;;;;10591086;27;20449;-81
2023/03/30 15:47:13;;;;;;;12.50;6.17;;;;;;;;;;10585689;27;20461;-81
2023/03/30 15:52:19;;;;;;;11.93;6.88;;;;;;;;;;10589701;27;20398;-81
2023/03/30 15:57:25;;;;;;;12.77;6.57;;;;;;;;;;10600189;27;20463;-82
2023/03/30 16:02:38;;;;;;;12.52;6.82;;;;;;;;;;10599296;27;20927;-81
2023/03/30 16:07:40;;;;;;;11.03;6.63;;;;;;;;;;10600374;27;20409;-81
2023/03/30 16:12:48;;;;;;;13.20;7.13;;;;;;;;;;10595069;27;20413;-81
2023/03/30 16:17:51;;;;;;;60.78;29.65;;;;;;;;;;10595573;27;20413;-82
2023/03/30 16:22:53;;;;;;;14.35;7.07;;;;;;;;;;10589923;27;20444;-82
2023/03/30 16:27:57;;;;;;;10.10;6.40;;;;;;;;;;10595215;27;20404;-81
2023/03/30 16:32:59;;;;;;;11.35;7.07;;;;;;;;;;10597748;27;20411;-82
2023/03/30 16:38:01;;;;;;;12.20;6.93;;;;;;;;;;10590247;27;21503;-82
2023/03/30 16:43:04;;;;;;;13.43;7.20;;;;;;;;;;10595191;27;20433;-82
2023/03/30 16:48:06;;;;;;;13.82;7.43;;;;;;;;;;10588165;27;20444;-82
2023/03/30 16:53:09;;;;;;;12.83;7.33;;;;;;;;;;10595861;27;20413;-82
2023/03/30 16:58:14;;;;;;;10.55;6.60;;;;;;;;;;10595294;27;20411;-83
2023/03/30 17:03:18;;;;;;;12.17;6.60;;;;;;;;;;10593067;27;20524;-82
2023/03/30 17:08:22;;;;;;;12.93;7.50;;;;;;;;;;10597593;27;20890;-82
2023/03/30 17:13:25;;;;;;;14.25;7.25;;;;;;;;;;10586739;27;20413;-82
2023/03/30 17:18:27;;;;;;;12.60;7.32;;;;;;;;;;10592384;27;20421;-79
2023/03/30 17:23:43;;;;;;;16.23;7.20;;;;;;;;;;10590363;27;20413;-79
2023/03/30 17:28:46;;;;;;;11.73;7.65;;;;;;;;;;10592513;27;20409;-78
2023/03/30 17:33:49;;;;;;;11.48;8.18;;;;;;;;;;10595540;27;20945;-78
2023/03/30 17:38:52;;;;;;;14.65;8.90;;;;;;;;;;10595541;27;21021;-79
2023/03/30 17:43:55;;;;;;;13.40;9.33;;;;;;;;;;10597180;27;21100;-81
2023/03/30 17:48:57;;;;;;;20.00;10.48;;;;;;;;;;10588052;27;20417;-81
2023/03/30 17:53:59;;;;;;;19.23;10.77;;;;;;;;;;10569317;27;20830;-80
2023/03/30 17:59:02;;;;;;;22.15;13.48;;;;;;;;;;10576809;27;20394;-81
2023/03/30 18:04:04;;;;;;;26.47;15.10;;;;;;;;;;10588930;27;20450;-80
2023/03/30 18:09:10;;;;;;;34.88;18.45;;;;;;;;;;10590552;27;20404;-81
2023/03/30 18:14:13;;;;;;;37.13;20.17;;;;;;;;;;10579914;27;20828;-81
2023/03/30 18:19:15;;;;;;;20.75;13.30;;;;;;;;;;10587263;27;20967;-82
2023/03/30 18:24:17;;;;;;;23.93;13.10;;;;;;;;;;10588576;27;20450;-81
2023/03/30 18:29:20;;;;;;;16.98;11.68;;;;;;;;;;10592442;27;20503;-81
2023/03/30 18:34:22;;;;;;;18.23;12.07;;;;;;;;;;10586754;27;20450;-83
2023/03/30 18:39:24;;;;;;;17.80;11.83;;;;;;;;;;10590783;27;20476;-80
2023/03/30 18:44:27;;;;;;;19.52;11.68;;;;;;;;;;10596912;27;20431;-80
2023/03/30 18:49:29;;;;;;;16.98;11.48;;;;;;;;;;10602328;27;20404;-81
2023/03/30 18:54:32;;;;;;;22.15;12.50;;;;;;;;;;10592502;27;21234;-81
2023/03/30 18:59:35;;;;;;;19.90;12.87;;;;;;;;;;10585228;28;20504;-80
2023/03/30 19:04:37;;;;;;;18.27;12.00;;;;;;;;;;10595226;27;20408;-81
2023/03/30 19:09:39;;;;;;;19.95;11.63;;;;;;;;;;10593415;28;20776;-81
2023/03/30 19:14:43;;;;;;;16.05;11.10;;;;;;;;;;10586134;28;20389;-81
2023/03/30 19:19:45;;;;;;;16.80;11.25;;;;;;;;;;10589143;28;20766;-81
2023/03/30 19:24:46;;;;;;;21.02;12.30;;;;;;;;;;10586909;28;20425;-81
2023/03/30 19:29:51;;;;;;;19.75;12.55;;;;;;;;;;10584540;28;20502;-81
2023/03/30 19:34:54;;;;;;;22.00;11.27;;;;;;;;;;10594178;28;20508;-80
2023/03/30 19:39:56;;;;;;;16.10;11.75;;;;;;;;;;10590612;28;20502;-81
2023/03/30 19:45:00;;;;;;;21.35;13.23;;;;;;;;;;10587929;28;20931;-81
2023/03/30 19:50:06;;;;;;;24.15;13.80;;;;;;;;;;10592349;28;20417;-81
2023/03/30 19:55:10;;;;;;;24.27;13.63;;;;;;;;;;10587738;28;20977;-80
2023/03/30 20:00:15;;;;;;;27.30;15.25;;;;;;;;;;10587466;27;20419;-80
2023/03/30 20:05:18;;;;;;;23.30;14.50;;;;;;;;;;10595682;27;20947;-83
2023/03/30 20:10:22;;;;;;;23.20;13.98;;;;;;;;;;10595609;27;20393;-82
2023/03/30 20:15:26;;;;;;;23.58;13.80;;;;;;;;;;10590874;27;20423;-81
2023/03/30 20:20:31;;;;;;;21.52;12.55;;;;;;;;;;10601478;27;20781;-82
2023/03/30 20:25:33;;;;;;;18.30;12.32;;;;;;;;;;10601104;27;21009;-81
2023/03/30 20:30:37;;;;;;;17.67;12.73;;;;;;;;;;10597257;27;20397;-82
2023/03/30 20:35:39;;;;;;;21.95;13.10;;;;;;;;;;10604528;27;20419;-81
2023/03/30 20:40:41;;;;;;;19.52;13.15;;;;;;;;;;10590266;27;21030;-81
2023/03/30 20:45:46;;;;;;;22.35;13.88;;;;;;;;;;10594335;27;20519;-82
2023/03/30 20:50:48;;;;;;;21.80;13.60;;;;;;;;;;10604713;27;20776;-82
2023/03/30 20:55:50;;;;;;;21.90;13.30;;;;;;;;;;10589629;27;20433;-82
2023/03/30 21:00:56;;;;;;;20.67;13.13;;;;;;;;;;10579509;27;20466;-82
2023/03/30 21:06:00;;;;;;;19.03;13.43;;;;;;;;;;10587921;27;20501;-82
2023/03/30 21:11:02;;;;;;;23.50;13.30;;;;;;;;;;10589476;27;20433;-82
2023/03/30 21:16:07;;;;;;;20.27;14.35;;;;;;;;;;10602215;27;21135;-82
2023/03/30 21:21:09;;;;;;;20.95;13.20;;;;;;;;;;10597951;27;20407;-82
2023/03/30 21:26:12;;;;;;;20.23;13.43;;;;;;;;;;10598984;27;20420;-82
2023/03/30 21:31:15;;;;;;;19.45;12.40;;;;;;;;;;10599957;27;20511;-82
2023/03/30 21:36:17;;;;;;;19.10;12.77;;;;;;;;;;10597240;27;20971;-83
2023/03/30 21:41:22;;;;;;;18.90;11.80;;;;;;;;;;10573138;27;20461;-82
2023/03/30 21:46:26;;;;;;;18.40;12.07;;;;;;;;;;10601522;27;20452;-83
2023/03/30 21:51:30;;;;;;;19.33;12.30;;;;;;;;;;10594392;27;20405;-83
2023/03/30 21:56:32;;;;;;;18.40;12.70;;;;;;;;;;10604309;27;21149;-84
2023/03/30 22:01:35;;;;;;;16.95;12.43;;;;;;;;;;10610166;27;20884;-84
2023/03/30 22:06:37;;;;;;;20.73;12.67;;;;;;;;;;10611152;27;20420;-84
2023/03/30 22:11:39;;;;;;;16.27;12.07;;;;;;;;;;10603916;27;20429;-84
2023/03/30 22:16:43;;;;;;;17.60;12.10;;;;;;;;;;10607807;27;20407;-83
2023/03/30 22:21:45;;;;;;;17.48;11.48;;;;;;;;;;10609703;27;20478;-84
2023/03/30 22:26:48;;;;;;;15.73;11.05;;;;;;;;;;10600721;27;20419;-84
2023/03/30 22:31:54;;;;;;;16.42;11.30;;;;;;;;;;10599657;27;20483;-84
2023/03/30 22:36:56;;;;;;;15.40;11.10;;;;;;;;;;10602542;27;20428;-84
2023/03/30 22:41:58;;;;;;;17.00;10.75;;;;;;;;;;10587694;27;20390;-83
2023/03/30 22:47:01;;;;;;;18.38;11.32;;;;;;;;;;10589161;27;20501;-82
2023/03/30 22:52:03;;;;;;;16.48;11.27;;;;;;;;;;10572992;28;20410;-82
2023/03/30 22:57:05;;;;;;;15.45;10.73;;;;;;;;;;10573461;28;20885;-83
2023/03/30 23:02:08;;;;;;;15.70;10.77;;;;;;;;;;10585496;28;20794;-83
2023/03/30 23:07:10;;;;;;;16.88;11.80;;;;;;;;;;10603431;28;20412;-82
2023/03/30 23:12:12;;;;;;;14.57;11.27;;;;;;;;;;10573494;28;20466;-83
2023/03/30 23:17:16;;;;;;;17.13;11.30;;;;;;;;;;10587270;28;20393;-83
2023/03/30 23:22:17;;;;;;;17.40;12.00;;;;;;;;;;10604766;28;20463;-82
2023/03/30 23:27:21;;;;;;;16.75;12.18;;;;;;;;;;10587171;28;20825;-82
2023/03/30 23:32:24;;;;;;;16.08;11.63;;;;;;;;;;10590767;28;20399;-83
2023/03/30 23:37:28;;;;;;;19.50;12.15;;;;;;;;;;10610976;27;20814;-82
2023/03/30 23:42:30;;;;;;;18.15;11.50;;;;;;;;;;10591096;27;20470;-82
2023/03/30 23:47:33;;;;;;;17.33;12.63;;;;;;;;;;10600388;27;20791;-83
2023/03/30 23:52:35;;;;;;;17.17;12.25;;;;;;;;;;10614292;27;20838;-85
2023/03/30 23:57:37;;;;;;;17.03;12.13;;;;;;;;;;10589021;27;20473;-82
